createdAt,value
2023-02-19T00:03:13.341Z,9.09
2023-02-19T00:06:34.828Z,9.88
2023-02-19T00:09:40.957Z,10.03
2023-02-19T00:12:39.429Z,9.76
2023-02-19T00:15:31.632Z,9.42
2023-02-19T00:18:38.903Z,9.10
2023-02-19T00:21:39.898Z,8.85
2023-02-19T00:24:44.342Z,9.50
2023-02-19T00:27:32.240Z,9.87
2023-02-19T00:30:31.368Z,9.66
2023-02-19T00:33:47.123Z,9.25
2023-02-19T00:37:39.129Z,8.89
2023-02-19T00:41:39.827Z,8.75
2023-02-19T00:45:23.423Z,9.63
2023-02-19T00:48:58.593Z,9.40
2023-02-19T00:52:41.692Z,8.93
2023-02-19T00:55:39.820Z,8.46
2023-02-19T00:58:51.348Z,8.16
2023-02-19T01:02:36.590Z,8.87
2023-02-19T01:06:08.150Z,9.06
2023-02-19T01:10:05.220Z,8.73
2023-02-19T01:12:56.626Z,8.33
2023-02-19T01:16:35.710Z,7.96
2023-02-19T01:19:30.424Z,7.73
2023-02-19T01:23:24.934Z,8.47
2023-02-19T01:27:24.087Z,8.59
2023-02-19T01:30:51.587Z,8.20
2023-02-19T01:34:36.283Z,7.74
2023-02-19T01:38:08.436Z,7.33
2023-02-19T01:41:18.530Z,7.21
2023-02-19T01:44:18.274Z,7.95
2023-02-19T01:48:09.884Z,8.02
2023-02-19T01:51:55.116Z,7.68
2023-02-19T01:55:36.662Z,7.30
2023-02-19T01:59:16.140Z,6.94
2023-02-19T02:03:09.258Z,6.89
2023-02-19T02:06:44.466Z,7.58
2023-02-19T02:10:41.402Z,7.55
2023-02-19T02:14:11.041Z,7.21
2023-02-19T02:17:43.958Z,6.92
2023-02-19T02:21:25.620Z,6.67
2023-02-19T02:25:01.697Z,6.79
2023-02-19T02:29:13.901Z,7.96
2023-02-19T02:32:46.708Z,8.03
2023-02-19T02:36:13.963Z,7.63
2023-02-19T02:39:59.188Z,7.27
2023-02-19T02:43:14.937Z,6.92
2023-02-19T02:47:00.691Z,6.74
2023-02-19T02:50:31.073Z,7.66
2023-02-19T02:53:31.994Z,7.75
2023-02-19T02:56:48.557Z,7.52
2023-02-19T02:59:53.259Z,7.18
2023-02-19T03:03:19.368Z,6.94
2023-02-19T03:07:25.956Z,6.64
2023-02-19T03:11:35.804Z,6.71
2023-02-19T03:15:08.204Z,7.97
2023-02-19T03:18:16.467Z,8.05
2023-02-19T03:22:08.441Z,7.67
2023-02-19T03:25:54.296Z,7.26
2023-02-19T03:30:02.531Z,6.86
2023-02-19T03:33:40.831Z,6.59
2023-02-19T03:37:26.352Z,6.51
2023-02-19T03:40:31.661Z,7.71
2023-02-19T03:44:15.976Z,8.09
2023-02-19T03:47:31.405Z,7.76
2023-02-19T03:50:46.863Z,7.40
2023-02-19T03:54:15.920Z,7.09
2023-02-19T03:58:31.774Z,6.77
2023-02-19T04:02:04.149Z,6.72
2023-02-19T04:05:36.621Z,7.72
2023-02-19T04:09:03.525Z,7.78
2023-02-19T04:12:06.600Z,7.45
2023-02-19T04:16:13.435Z,7.12
2023-02-19T04:19:46.178Z,6.81
2023-02-19T04:23:35.517Z,6.66
2023-02-19T04:27:42.323Z,7.92
2023-02-19T04:31:40.466Z,8.00
2023-02-19T04:35:27.269Z,7.60
2023-02-19T04:38:44.552Z,7.23
2023-02-19T04:41:48.833Z,6.90
2023-02-19T04:45:11.319Z,6.67
2023-02-19T04:48:53.448Z,6.61
2023-02-19T04:52:21.723Z,7.84
2023-02-19T04:55:33.308Z,8.06
2023-02-19T04:58:26.913Z,7.79
2023-02-19T05:01:20.941Z,7.41
2023-02-19T05:04:54.045Z,7.07
2023-02-19T05:08:08.017Z,6.77
2023-02-19T05:11:23.429Z,6.51
2023-02-19T05:14:47.673Z,6.31
2023-02-19T05:18:26.297Z,7.11
2023-02-19T05:21:15.166Z,7.22
2023-02-19T05:24:25.486Z,6.93
2023-02-19T05:27:20.196Z,6.57
2023-02-19T05:30:29.378Z,6.31
2023-02-19T05:34:05.265Z,6.10
2023-02-19T05:37:35.976Z,6.09
2023-02-19T05:40:38.247Z,7.26
2023-02-19T05:43:40.151Z,7.67
2023-02-19T05:46:19.719Z,7.52
2023-02-19T05:49:16.286Z,7.25
2023-02-19T05:52:57.977Z,6.90
2023-02-19T05:56:19.685Z,6.49
2023-02-19T05:59:28.391Z,6.30
2023-02-19T06:02:31.461Z,6.08
2023-02-19T06:05:25.373Z,6.84
2023-02-19T06:08:49.471Z,7.22
2023-02-19T06:12:40.134Z,7.00
2023-02-19T06:15:41.681Z,6.79
2023-02-19T06:19:49.759Z,6.61
2023-02-19T06:23:01.004Z,6.40
2023-02-19T06:26:10.158Z,6.32
2023-02-19T06:28:50.308Z,7.32
2023-02-19T06:32:23.937Z,7.99
2023-02-19T06:35:16.846Z,7.91
2023-02-19T06:37:51.629Z,7.63
2023-02-19T06:40:48.789Z,7.38
2023-02-19T06:44:07.822Z,7.05
2023-02-19T06:46:52.239Z,6.82
2023-02-19T06:49:35.337Z,6.59
2023-02-19T06:52:13.303Z,6.44
2023-02-19T06:55:02.229Z,7.17
2023-02-19T06:58:02.886Z,7.78
2023-02-19T07:01:14.419Z,7.79
2023-02-19T07:04:00.909Z,7.61
2023-02-19T07:06:50.819Z,7.41
2023-02-19T07:09:30.930Z,7.27
2023-02-19T07:12:31.252Z,7.10
2023-02-19T07:15:21.941Z,6.94
2023-02-19T07:18:07.746Z,6.85
2023-02-19T07:20:45.078Z,7.52
2023-02-19T07:23:32.358Z,8.16
2023-02-19T07:26:05.720Z,8.23
2023-02-19T07:28:52.539Z,8.13
2023-02-19T07:31:32.998Z,7.96
2023-02-19T07:34:07.700Z,7.78
2023-02-19T07:36:52.316Z,7.57
2023-02-19T07:40:15.362Z,7.45
2023-02-19T07:42:49.741Z,7.32
2023-02-19T07:46:02.384Z,7.31
2023-02-19T07:49:08.267Z,7.26
2023-02-19T07:52:02.044Z,8.48
2023-02-19T07:54:29.879Z,8.95
2023-02-19T07:57:09.212Z,8.93
2023-02-19T07:59:47.101Z,8.58
2023-02-19T08:02:41.965Z,8.36
2023-02-19T08:05:24.396Z,8.07
2023-02-19T08:07:52.362Z,7.86
2023-02-19T08:10:38.242Z,7.64
2023-02-19T08:13:22.996Z,7.50
2023-02-19T08:16:07.553Z,7.34
2023-02-19T08:18:54.237Z,7.18
2023-02-19T08:21:34.912Z,7.11
2023-02-19T08:24:14.448Z,7.82
2023-02-19T08:26:47.483Z,8.42
2023-02-19T08:29:19.159Z,8.58
2023-02-19T08:31:46.394Z,8.47
2023-02-19T08:34:22.800Z,8.27
2023-02-19T08:36:52.411Z,8.02
2023-02-19T08:39:25.424Z,7.78
2023-02-19T08:41:55.724Z,7.58
2023-02-19T08:44:23.228Z,7.43
2023-02-19T08:46:56.306Z,7.29
2023-02-19T08:49:27.509Z,7.74
2023-02-19T08:51:54.900Z,8.37
2023-02-19T08:54:22.199Z,8.45
2023-02-19T08:56:51.613Z,8.26
2023-02-19T08:59:20.678Z,8.00
2023-02-19T09:01:47.844Z,7.79
2023-02-19T09:04:14.993Z,7.58
2023-02-19T09:06:42.421Z,7.42
2023-02-19T09:09:16.070Z,7.27
2023-02-19T09:11:48.987Z,7.77
2023-02-19T09:14:25.858Z,8.42
2023-02-19T09:16:54.100Z,8.46
2023-02-19T09:19:21.275Z,8.29
2023-02-19T09:21:48.587Z,8.08
2023-02-19T09:24:15.388Z,7.85
2023-02-19T09:26:42.593Z,7.65
2023-02-19T09:29:12.167Z,7.43
2023-02-19T09:31:39.611Z,7.19
2023-02-19T09:34:07.117Z,7.58
2023-02-19T09:36:36.577Z,8.16
2023-02-19T09:39:06.748Z,8.16
2023-02-19T09:41:46.948Z,7.93
2023-02-19T09:44:20.740Z,7.65
2023-02-19T09:46:49.096Z,7.43
2023-02-19T09:49:18.813Z,7.14
2023-02-19T09:51:55.371Z,6.90
2023-02-19T09:54:27.594Z,7.43
2023-02-19T09:56:55.479Z,8.00
2023-02-19T09:59:41.443Z,8.05
2023-02-19T10:02:21.150Z,7.94
2023-02-19T10:04:51.694Z,7.73
2023-02-19T10:07:25.545Z,7.54
2023-02-19T10:10:01.217Z,7.33
2023-02-19T10:12:30.780Z,7.15
2023-02-19T10:15:34.898Z,7.02
2023-02-19T10:18:11.342Z,7.83
2023-02-19T10:20:39.189Z,8.28
2023-02-19T10:23:35.780Z,8.26
2023-02-19T10:26:03.219Z,8.12
2023-02-19T10:28:35.275Z,7.90
2023-02-19T10:31:06.016Z,7.66
2023-02-19T10:33:36.085Z,7.46
2023-02-19T10:36:22.846Z,7.30
2023-02-19T10:38:53.608Z,7.92
2023-02-19T10:41:37.744Z,8.54
2023-02-19T10:44:31.657Z,8.61
2023-02-19T10:47:22.611Z,8.42
2023-02-19T10:49:52.331Z,8.17
2023-02-19T10:52:50.908Z,8.03
2023-02-19T10:55:38.055Z,7.82
2023-02-19T10:58:27.825Z,7.60
2023-02-19T11:01:27.961Z,7.51
2023-02-19T11:04:38.376Z,8.44
2023-02-19T11:07:15.354Z,9.02
2023-02-19T11:09:47.238Z,8.92
2023-02-19T11:12:35.874Z,8.72
2023-02-19T11:15:24.168Z,8.46
2023-02-19T11:18:15.192Z,8.27
2023-02-19T11:21:49.580Z,8.15
2023-02-19T11:25:06.656Z,7.96
2023-02-19T11:28:07.228Z,7.84
2023-02-19T11:30:46.086Z,8.76
2023-02-19T11:33:27.386Z,9.37
2023-02-19T11:36:19.718Z,9.56
2023-02-19T11:38:52.223Z,9.63
2023-02-19T11:42:00.584Z,9.57
2023-02-19T11:44:54.270Z,9.38
2023-02-19T11:47:59.046Z,9.19
2023-02-19T11:51:13.872Z,8.95
2023-02-19T11:53:49.592Z,8.67
2023-02-19T11:56:34.458Z,8.50
2023-02-19T11:59:11.462Z,8.32
2023-02-19T12:01:45.409Z,8.82
2023-02-19T12:04:21.623Z,9.25
2023-02-19T12:07:18.961Z,9.18
2023-02-19T12:13:00.389Z,8.43
2023-02-19T12:16:01.672Z,8.21
2023-02-19T12:18:44.272Z,7.91
2023-02-19T12:21:17.368Z,7.75
2023-02-19T12:24:15.887Z,7.66
2023-02-19T12:27:15.393Z,8.46
2023-02-19T12:30:24.969Z,9.14
2023-02-19T12:33:18.407Z,9.15
2023-02-19T12:36:00.128Z,9.03
2023-02-19T12:38:38.388Z,8.87
2023-02-19T12:41:43.968Z,8.71
2023-02-19T12:44:23.248Z,8.57
2023-02-19T12:47:18.483Z,8.48
2023-02-19T12:50:00.978Z,8.40
2023-02-19T12:52:33.435Z,9.04
2023-02-19T12:55:03.920Z,9.60
2023-02-19T12:57:42.069Z,9.66
2023-02-19T13:00:30.554Z,9.44
2023-02-19T13:03:21.150Z,9.07
2023-02-19T13:06:01.074Z,8.76
2023-02-19T13:09:05.769Z,8.52
2023-02-19T13:11:55.812Z,8.27
2023-02-19T13:14:43.843Z,8.10
2023-02-19T13:17:22.875Z,7.97
2023-02-19T13:19:52.060Z,8.71
2023-02-19T13:22:40.771Z,9.29
2023-02-19T13:25:21.688Z,9.31
2023-02-19T13:27:55.974Z,9.08
2023-02-19T13:30:32.458Z,8.76
2023-02-19T13:33:21.604Z,8.44
2023-02-19T13:36:06.360Z,8.13
2023-02-19T13:38:37.595Z,7.90
2023-02-19T13:41:04.893Z,7.68
2023-02-19T13:43:38.905Z,8.12
2023-02-19T13:46:10.523Z,8.62
2023-02-19T13:48:38.971Z,8.54
2023-02-19T13:51:24.773Z,8.28
2023-02-19T13:53:59.230Z,7.95
2023-02-19T13:56:35.955Z,7.66
2023-02-19T13:59:28.088Z,7.37
2023-02-19T14:01:58.595Z,7.10
2023-02-19T14:05:00.331Z,6.88
2023-02-19T14:24:31.353Z,6.71
2023-02-19T14:27:00.824Z,6.48
2023-02-19T14:29:30.286Z,6.91
2023-02-19T14:32:00.971Z,7.46
2023-02-19T14:34:31.006Z,7.51
2023-02-19T14:37:01.568Z,7.23
2023-02-19T14:40:00.390Z,6.96
2023-02-19T14:42:33.655Z,6.73
2023-02-19T14:45:15.175Z,6.52
2023-02-19T14:47:49.719Z,6.28
2023-02-19T14:50:28.733Z,6.76
2023-02-19T14:53:06.281Z,7.39
2023-02-19T14:55:58.965Z,7.42
2023-02-19T14:58:32.178Z,7.13
2023-02-19T15:01:09.580Z,6.88
2023-02-19T15:04:02.528Z,6.61
2023-02-19T15:06:37.964Z,6.37
2023-02-19T15:09:38.498Z,6.15
2023-02-19T15:12:08.420Z,6.82
2023-02-19T15:14:38.708Z,7.28
2023-02-19T15:17:35.086Z,7.24
2023-02-19T15:20:42.297Z,6.98
2023-02-19T15:23:32.679Z,6.58
2023-02-19T15:26:14.674Z,6.26
2023-02-19T15:28:42.304Z,6.02
2023-02-19T15:31:40.623Z,5.76
2023-02-19T15:34:58.097Z,6.35
2023-02-19T15:37:55.247Z,6.75
2023-02-19T15:41:07.247Z,6.39
2023-02-19T15:44:48.944Z,6.02
2023-02-19T15:47:45.953Z,5.70
2023-02-19T15:50:44.310Z,5.34
2023-02-19T15:53:37.533Z,5.16
2023-02-19T15:56:12.693Z,5.88
2023-02-19T15:59:23.303Z,6.19
2023-02-19T16:02:27.580Z,6.05
2023-02-19T16:05:02.294Z,5.78
2023-02-19T16:08:33.227Z,5.56
2023-02-19T16:11:35.681Z,5.23
2023-02-19T16:14:37.734Z,5.08
2023-02-19T16:17:30.809Z,5.90
2023-02-19T16:20:02.599Z,6.36
2023-02-19T16:22:42.918Z,6.20
2023-02-19T16:25:44.561Z,5.89
2023-02-19T16:28:31.083Z,5.60
2023-02-19T16:31:03.651Z,5.35
2023-02-19T16:34:00.570Z,5.13
2023-02-19T16:36:33.832Z,4.91
2023-02-19T16:39:38.579Z,5.70
2023-02-19T16:42:25.511Z,6.27
2023-02-19T16:45:24.943Z,6.11
2023-02-19T16:47:53.975Z,5.82
2023-02-19T16:50:46.481Z,5.51
2023-02-19T16:53:20.399Z,5.22
2023-02-19T16:56:25.691Z,4.99
2023-02-19T16:59:27.525Z,4.80
2023-02-19T17:02:55.580Z,5.70
2023-02-19T17:05:57.514Z,6.09
2023-02-19T17:09:06.506Z,5.84
2023-02-19T17:11:40.319Z,5.40
2023-02-19T17:14:24.280Z,5.09
2023-02-19T17:17:14.919Z,4.83
2023-02-19T17:19:49.191Z,4.59
2023-02-19T17:22:38.995Z,4.37
2023-02-19T17:25:21.550Z,5.06
2023-02-19T17:28:20.119Z,5.67
2023-02-19T17:30:47.284Z,5.59
2023-02-19T17:33:25.744Z,5.27
2023-02-19T17:36:01.824Z,5.01
2023-02-19T17:38:31.941Z,4.78
2023-02-19T17:41:00.148Z,4.52
2023-02-19T17:43:27.635Z,4.29
2023-02-19T17:46:06.209Z,4.78
2023-02-19T17:48:39.233Z,5.36
2023-02-19T17:51:06.363Z,5.40
2023-02-19T17:53:42.193Z,5.19
2023-02-19T17:56:13.672Z,4.92
2023-02-19T17:58:52.701Z,4.64
2023-02-19T18:01:23.288Z,4.41
2023-02-19T18:04:01.857Z,4.20
2023-02-19T18:06:29.587Z,4.71
2023-02-19T18:09:00.472Z,5.32
2023-02-19T18:11:28.036Z,5.43
2023-02-19T18:14:09.298Z,5.24
2023-02-19T18:16:37.918Z,4.95
2023-02-19T18:19:07.425Z,4.69
2023-02-19T18:21:35.945Z,4.44
2023-02-19T18:24:03.419Z,4.18
2023-02-19T18:26:30.874Z,4.58
2023-02-19T18:29:26.208Z,5.17
2023-02-19T18:31:58.913Z,5.15
2023-02-19T18:34:28.454Z,4.92
2023-02-19T18:37:01.302Z,4.63
2023-02-19T18:39:28.786Z,4.38
2023-02-19T18:41:57.864Z,4.15
2023-02-19T18:44:27.739Z,3.93
2023-02-19T18:46:54.876Z,4.39
2023-02-19T18:49:22.228Z,4.97
2023-02-19T18:51:49.533Z,5.03
2023-02-19T18:54:16.741Z,4.83
2023-02-19T18:56:47.292Z,4.55
2023-02-19T18:59:16.895Z,4.25
2023-02-19T19:01:44.402Z,4.02
2023-02-19T19:04:12.357Z,3.80
2023-02-19T19:06:44.544Z,4.26
2023-02-19T19:09:14.835Z,4.80
2023-02-19T19:11:46.534Z,4.81
2023-02-19T19:14:13.844Z,4.60
2023-02-19T19:16:42.324Z,4.32
2023-02-19T19:19:12.384Z,4.03
2023-02-19T19:21:39.464Z,3.78
2023-02-19T19:24:06.849Z,3.55
2023-02-19T19:26:37.297Z,3.94
2023-02-19T19:29:04.595Z,4.51
2023-02-19T19:31:35.941Z,4.56
2023-02-19T19:34:03.922Z,4.35
2023-02-19T19:36:31.225Z,4.04
2023-02-19T19:39:00.491Z,3.80
2023-02-19T19:42:09.356Z,3.51
2023-02-19T19:44:39.999Z,4.15
2023-02-19T19:47:07.551Z,4.63
2023-02-19T19:49:35.073Z,4.64
2023-02-19T19:52:14.294Z,4.33
2023-02-19T19:54:45.034Z,4.08
2023-02-19T19:57:15.564Z,3.79
2023-02-19T19:59:54.060Z,3.57
2023-02-19T20:02:27.310Z,4.12
2023-02-19T20:05:02.940Z,4.66
2023-02-19T20:07:38.098Z,4.59
2023-02-19T20:10:06.995Z,4.42
2023-02-19T20:12:39.680Z,4.18
2023-02-19T20:15:22.743Z,3.90
2023-02-19T20:17:53.495Z,3.63
2023-02-19T20:20:23.697Z,4.19
2023-02-19T20:22:57.246Z,4.67
2023-02-19T20:25:24.823Z,4.64
2023-02-19T20:27:58.585Z,4.35
2023-02-19T20:30:26.032Z,4.07
2023-02-19T20:32:56.352Z,3.82
2023-02-19T20:35:28.520Z,3.59
2023-02-19T20:37:55.999Z,3.38
2023-02-19T20:40:36.141Z,3.91
2023-02-19T20:43:03.926Z,4.56
2023-02-19T20:45:43.169Z,4.55
2023-02-19T20:48:17.072Z,4.31
2023-02-19T20:50:49.765Z,4.05
2023-02-19T20:53:23.420Z,3.78
2023-02-19T20:56:06.106Z,3.52
2023-02-19T20:58:53.591Z,3.26
2023-02-19T21:01:47.275Z,3.97
2023-02-19T21:04:22.910Z,4.46
2023-02-19T21:07:20.056Z,4.38
2023-02-19T21:10:11.148Z,3.99
2023-02-19T21:12:54.423Z,3.69
2023-02-19T21:15:45.874Z,3.42
2023-02-19T21:18:20.613Z,3.20
2023-02-19T21:21:01.924Z,3.75
2023-02-19T21:24:01.002Z,4.29
2023-02-19T21:26:39.320Z,4.17
2023-02-19T21:29:18.551Z,3.95
2023-02-19T21:32:07.244Z,3.71
2023-02-19T21:34:50.261Z,3.49
2023-02-19T21:37:31.635Z,3.29
2023-02-19T21:40:21.992Z,3.86
2023-02-19T21:43:20.779Z,4.42
2023-02-19T21:46:35.860Z,4.31
2023-02-19T21:49:11.472Z,4.01
2023-02-19T21:52:14.368Z,3.78
2023-02-19T21:54:58.278Z,3.59
2023-02-19T21:57:39.181Z,3.42
2023-02-19T22:00:32.591Z,4.07
2023-02-19T22:03:26.787Z,4.50
2023-02-19T22:06:46.366Z,4.33
2023-02-19T22:10:25.526Z,4.02
2023-02-19T22:13:55.580Z,3.78
2023-02-19T22:16:47.005Z,3.53
2023-02-19T22:20:07.940Z,3.37
2023-02-19T22:22:38.012Z,4.21
2023-02-19T22:25:48.588Z,4.58
2023-02-19T22:29:23.756Z,4.50
2023-02-19T22:33:01.469Z,4.10
2023-02-19T22:36:46.279Z,3.73
2023-02-19T22:40:24.229Z,3.45
2023-02-19T22:44:17.631Z,3.35
2023-02-19T22:47:52.513Z,4.30
2023-02-19T22:51:23.559Z,4.42
2023-02-19T22:54:57.024Z,4.11
2023-02-19T22:58:37.634Z,3.71
2023-02-19T23:02:38.200Z,3.42
2023-02-19T23:06:29.306Z,3.44
2023-02-19T23:10:18.234Z,4.40
2023-02-19T23:13:37.182Z,4.32
2023-02-19T23:16:52.359Z,4.08
2023-02-19T23:20:31.877Z,3.75
2023-02-19T23:24:10.800Z,3.46
2023-02-19T23:28:01.218Z,3.46
2023-02-19T23:32:07.891Z,4.55
2023-02-19T23:35:32.062Z,4.49
2023-02-19T23:39:32.901Z,4.06
2023-02-19T23:43:34.558Z,3.60
2023-02-19T23:47:25.612Z,3.17
2023-02-19T23:51:23.684Z,3.14
2023-02-19T23:55:14.792Z,4.10
2023-02-19T23:59:15.939Z,3.96
